sensor_id;sensor_type;location;lat;lon;timestamp;P1;durP1;ratioP1;P2;durP2;ratioP2
30998;SDS011;20549;50.042;8.968;2022-09-01T00:01:37;3.40;;;2.13;;
30998;SDS011;20549;50.042;8.968;2022-09-01T00:04:03;2.83;;;1.32;;
30998;SDS011;20549;50.042;8.968;2022-09-01T00:06:30;1.98;;;1.87;;
30998;SDS011;20549;50.042;8.968;2022-09-01T00:08:57;2.37;;;1.95;;
30998;SDS011;20549;50.042;8.968;2022-09-01T00:11:23;1.87;;;1.77;;
30998;SDS011;20549;50.042;8.968;2022-09-01T00:13:49;1.75;;;1.62;;
30998;SDS011;20549;50.042;8.968;2022-09-01T00:16:16;4.35;;;1.50;;
30998;SDS011;20549;50.042;8.968;2022-09-01T00:18:43;1.50;;;1.40;;
30998;SDS011;20549;50.042;8.968;2022-09-01T00:21:09;1.50;;;1.40;;
30998;SDS011;20549;50.042;8.968;2022-09-01T00:23:36;2.75;;;1.87;;
30998;SDS011;20549;50.042;8.968;2022-09-01T00:26:02;1.85;;;1.60;;
30998;SDS011;20549;50.042;8.968;2022-09-01T00:28:30;2.33;;;2.15;;
30998;SDS011;20549;50.042;8.968;2022-09-01T00:30:55;1.97;;;1.63;;
30998;SDS011;20549;50.042;8.968;2022-09-01T00:33:22;2.58;;;1.75;;
30998;SDS011;20549;50.042;8.968;2022-09-01T00:35:48;4.77;;;1.60;;
30998;SDS011;20549;50.042;8.968;2022-09-01T00:38:15;2.67;;;1.70;;
30998;SDS011;20549;50.042;8.968;2022-09-01T00:40:42;3.50;;;1.77;;
30998;SDS011;20549;50.042;8.968;2022-09-01T00:43:12;1.60;;;1.50;;
30998;SDS011;20549;50.042;8.968;2022-09-01T00:45:37;1.82;;;1.60;;
30998;SDS011;20549;50.042;8.968;2022-09-01T00:48:04;1.62;;;1.52;;
30998;SDS011;20549;50.042;8.968;2022-09-01T00:50:31;1.67;;;1.57;;
30998;SDS011;20549;50.042;8.968;2022-09-01T00:52:57;2.05;;;1.72;;
30998;SDS011;20549;50.042;8.968;2022-09-01T00:55:24;2.22;;;1.90;;
30998;SDS011;20549;50.042;8.968;2022-09-01T00:57:50;1.70;;;1.60;;
30998;SDS011;20549;50.042;8.968;2022-09-01T01:00:28;1.87;;;1.77;;
30998;SDS011;20549;50.042;8.968;2022-09-01T01:02:50;1.80;;;1.70;;
30998;SDS011;20549;50.042;8.968;2022-09-01T01:05:19;1.70;;;1.60;;
30998;SDS011;20549;50.042;8.968;2022-09-01T01:07:46;1.80;;;1.70;;
30998;SDS011;20549;50.042;8.968;2022-09-01T01:10:13;1.70;;;1.60;;
30998;SDS011;20549;50.042;8.968;2022-09-01T01:12:39;2.00;;;1.90;;
30998;SDS011;20549;50.042;8.968;2022-09-01T01:15:06;1.63;;;1.53;;
30998;SDS011;20549;50.042;8.968;2022-09-01T01:17:32;1.50;;;1.40;;
30998;SDS011;20549;50.042;8.968;2022-09-01T01:19:58;1.42;;;1.32;;
30998;SDS011;20549;50.042;8.968;2022-09-01T01:22:45;1.70;;;1.60;;
30998;SDS011;20549;50.042;8.968;2022-09-01T01:25:39;3.63;;;1.97;;
30998;SDS011;20549;50.042;8.968;2022-09-01T01:28:04;1.70;;;1.60;;
30998;SDS011;20549;50.042;8.968;2022-09-01T01:30:30;1.43;;;1.40;;
30998;SDS011;20549;50.042;8.968;2022-09-01T01:32:56;1.77;;;1.67;;
30998;SDS011;20549;50.042;8.968;2022-09-01T01:35:23;1.40;;;1.30;;
30998;SDS011;20549;50.042;8.968;2022-09-01T01:37:50;2.37;;;1.42;;
30998;SDS011;20549;50.042;8.968;2022-09-01T01:40:17;1.87;;;1.77;;
30998;SDS011;20549;50.042;8.968;2022-09-01T01:42:47;2.67;;;1.70;;
30998;SDS011;20549;50.042;8.968;2022-09-01T01:45:13;3.97;;;1.50;;
30998;SDS011;20549;50.042;8.968;2022-09-01T01:47:39;2.57;;;1.60;;
30998;SDS011;20549;50.042;8.968;2022-09-01T01:50:06;1.57;;;1.47;;
30998;SDS011;20549;50.042;8.968;2022-09-01T01:52:32;2.40;;;1.53;;
30998;SDS011;20549;50.042;8.968;2022-09-01T01:54:59;1.60;;;1.50;;
30998;SDS011;20549;50.042;8.968;2022-09-01T01:57:25;1.40;;;1.30;;
30998;SDS011;20549;50.042;8.968;2022-09-01T01:59:52;1.70;;;1.60;;
30998;SDS011;20549;50.042;8.968;2022-09-01T02:02:19;1.60;;;1.50;;
30998;SDS011;20549;50.042;8.968;2022-09-01T02:04:45;1.50;;;1.40;;
30998;SDS011;20549;50.042;8.968;2022-09-01T02:07:12;1.50;;;1.40;;
30998;SDS011;20549;50.042;8.968;2022-09-01T02:09:39;3.50;;;1.87;;
30998;SDS011;20549;50.042;8.968;2022-09-01T02:12:06;1.87;;;1.77;;
30998;SDS011;20549;50.042;8.968;2022-09-01T02:14:32;2.40;;;2.20;;
30998;SDS011;20549;50.042;8.968;2022-09-01T02:16:58;1.50;;;1.40;;
30998;SDS011;20549;50.042;8.968;2022-09-01T02:19:25;2.20;;;1.50;;
30998;SDS011;20549;50.042;8.968;2022-09-01T02:21:51;2.20;;;1.50;;
30998;SDS011;20549;50.042;8.968;2022-09-01T02:24:18;4.50;;;1.93;;
30998;SDS011;20549;50.042;8.968;2022-09-01T02:26:45;2.03;;;1.50;;
30998;SDS011;20549;50.042;8.968;2022-09-01T02:29:13;1.62;;;1.40;;
30998;SDS011;20549;50.042;8.968;2022-09-01T02:31:38;1.70;;;1.60;;
30998;SDS011;20549;50.042;8.968;2022-09-01T02:34:05;1.60;;;1.50;;
30998;SDS011;20549;50.042;8.968;2022-09-01T02:36:31;1.80;;;1.37;;
30998;SDS011;20549;50.042;8.968;2022-09-01T02:38:57;1.47;;;1.37;;
30998;SDS011;20549;50.042;8.968;2022-09-01T02:41:24;1.30;;;1.20;;
30998;SDS011;20549;50.042;8.968;2022-09-01T02:43:51;1.60;;;1.50;;
30998;SDS011;20549;50.042;8.968;2022-09-01T02:46:17;1.57;;;1.47;;
30998;SDS011;20549;50.042;8.968;2022-09-01T02:48:44;1.90;;;1.67;;
30998;SDS011;20549;50.042;8.968;2022-09-01T02:51:12;1.70;;;1.60;;
30998;SDS011;20549;50.042;8.968;2022-09-01T02:53:37;1.40;;;1.30;;
30998;SDS011;20549;50.042;8.968;2022-09-01T02:56:04;1.57;;;1.47;;
30998;SDS011;20549;50.042;8.968;2022-09-01T02:58:30;1.40;;;1.37;;
30998;SDS011;20549;50.042;8.968;2022-09-01T03:00:57;1.87;;;1.70;;
30998;SDS011;20549;50.042;8.968;2022-09-01T03:03:23;1.50;;;1.40;;
30998;SDS011;20549;50.042;8.968;2022-09-01T03:05:50;1.47;;;1.40;;
30998;SDS011;20549;50.042;8.968;2022-09-01T03:08:17;1.70;;;1.60;;
30998;SDS011;20549;50.042;8.968;2022-09-01T03:10:43;1.60;;;1.50;;
30998;SDS011;20549;50.042;8.968;2022-09-01T03:13:12;1.60;;;1.50;;
30998;SDS011;20549;50.042;8.968;2022-09-01T03:15:36;1.30;;;1.30;;
30998;SDS011;20549;50.042;8.968;2022-09-01T03:18:03;1.63;;;1.53;;
30998;SDS011;20549;50.042;8.968;2022-09-01T03:20:30;1.50;;;1.40;;
30998;SDS011;20549;50.042;8.968;2022-09-01T03:22:56;1.97;;;1.50;;
30998;SDS011;20549;50.042;8.968;2022-09-01T03:25:23;1.60;;;1.50;;
30998;SDS011;20549;50.042;8.968;2022-09-01T03:27:50;1.70;;;1.43;;
30998;SDS011;20549;50.042;8.968;2022-09-01T03:30:16;1.60;;;1.50;;
30998;SDS011;20549;50.042;8.968;2022-09-01T03:32:42;1.80;;;1.70;;
30998;SDS011;20549;50.042;8.968;2022-09-01T03:35:09;1.83;;;1.67;;
30998;SDS011;20549;50.042;8.968;2022-09-01T03:37:36;1.60;;;1.40;;
30998;SDS011;20549;50.042;8.968;2022-09-01T03:40:03;1.40;;;1.30;;
30998;SDS011;20549;50.042;8.968;2022-09-01T03:42:29;1.80;;;1.67;;
30998;SDS011;20549;50.042;8.968;2022-09-01T03:44:55;1.70;;;1.60;;
30998;SDS011;20549;50.042;8.968;2022-09-01T03:47:22;1.80;;;1.70;;
30998;SDS011;20549;50.042;8.968;2022-09-01T03:49:49;1.50;;;1.40;;
30998;SDS011;20549;50.042;8.968;2022-09-01T03:52:16;1.97;;;1.70;;
30998;SDS011;20549;50.042;8.968;2022-09-01T03:54:42;1.97;;;1.87;;
30998;SDS011;20549;50.042;8.968;2022-09-01T03:57:08;1.83;;;1.70;;
30998;SDS011;20549;50.042;8.968;2022-09-01T03:59:35;2.03;;;1.73;;
30998;SDS011;20549;50.042;8.968;2022-09-01T04:02:02;2.00;;;1.80;;
30998;SDS011;20549;50.042;8.968;2022-09-01T04:04:28;1.60;;;1.50;;
30998;SDS011;20549;50.042;8.968;2022-09-01T04:06:55;1.67;;;1.57;;
30998;SDS011;20549;50.042;8.968;2022-09-01T04:09:21;1.67;;;1.57;;
30998;SDS011;20549;50.042;8.968;2022-09-01T04:11:48;1.63;;;1.53;;
30998;SDS011;20549;50.042;8.968;2022-09-01T04:14:14;2.17;;;1.97;;
30998;SDS011;20549;50.042;8.968;2022-09-01T04:16:42;2.90;;;1.77;;
30998;SDS011;20549;50.042;8.968;2022-09-01T04:19:26;3.77;;;1.90;;
30998;SDS011;20549;50.042;8.968;2022-09-01T04:21:53;1.83;;;1.73;;
30998;SDS011;20549;50.042;8.968;2022-09-01T04:24:20;1.83;;;1.60;;
30998;SDS011;20549;50.042;8.968;2022-09-01T04:26:46;2.00;;;1.80;;
30998;SDS011;20549;50.042;8.968;2022-09-01T04:29:12;1.90;;;1.80;;
30998;SDS011;20549;50.042;8.968;2022-09-01T04:31:39;1.70;;;1.60;;
30998;SDS011;20549;50.042;8.968;2022-09-01T04:34:06;1.70;;;1.60;;
30998;SDS011;20549;50.042;8.968;2022-09-01T04:36:32;2.43;;;2.23;;
30998;SDS011;20549;50.042;8.968;2022-09-01T04:38:59;2.10;;;2.00;;
30998;SDS011;20549;50.042;8.968;2022-09-01T04:41:26;3.87;;;1.90;;
30998;SDS011;20549;50.042;8.968;2022-09-01T04:43:52;2.20;;;1.80;;
30998;SDS011;20549;50.042;8.968;2022-09-01T04:46:18;3.17;;;1.60;;
30998;SDS011;20549;50.042;8.968;2022-09-01T04:48:45;1.80;;;1.70;;
30998;SDS011;20549;50.042;8.968;2022-09-01T04:51:12;2.07;;;1.87;;
30998;SDS011;20549;50.042;8.968;2022-09-01T04:53:38;2.70;;;2.00;;
30998;SDS011;20549;50.042;8.968;2022-09-01T04:56:05;2.30;;;2.10;;
30998;SDS011;20549;50.042;8.968;2022-09-01T04:58:31;2.60;;;1.97;;
30998;SDS011;20549;50.042;8.968;2022-09-01T05:00:58;2.10;;;1.90;;
30998;SDS011;20549;50.042;8.968;2022-09-01T05:03:25;2.10;;;1.73;;
30998;SDS011;20549;50.042;8.968;2022-09-01T05:05:51;2.23;;;1.73;;
30998;SDS011;20549;50.042;8.968;2022-09-01T05:08:18;1.80;;;1.70;;
30998;SDS011;20549;50.042;8.968;2022-09-01T05:10:45;1.60;;;1.50;;
30998;SDS011;20549;50.042;8.968;2022-09-01T05:13:11;1.87;;;1.77;;
30998;SDS011;20549;50.042;8.968;2022-09-01T05:15:38;1.80;;;1.70;;
30998;SDS011;20549;50.042;8.968;2022-09-01T05:18:04;2.10;;;2.00;;
30998;SDS011;20549;50.042;8.968;2022-09-01T05:20:30;1.85;;;1.70;;
30998;SDS011;20549;50.042;8.968;2022-09-01T05:22:57;1.80;;;1.70;;
30998;SDS011;20549;50.042;8.968;2022-09-01T05:25:24;3.50;;;1.60;;
30998;SDS011;20549;50.042;8.968;2022-09-01T05:27:50;2.22;;;1.72;;
30998;SDS011;20549;50.042;8.968;2022-09-01T05:30:17;2.07;;;1.87;;
30998;SDS011;20549;50.042;8.968;2022-09-01T05:32:43;2.87;;;1.62;;
30998;SDS011;20549;50.042;8.968;2022-09-01T05:35:10;2.85;;;1.72;;
30998;SDS011;20549;50.042;8.968;2022-09-01T05:37:37;1.60;;;1.50;;
30998;SDS011;20549;50.042;8.968;2022-09-01T05:40:04;1.57;;;1.47;;
30998;SDS011;20549;50.042;8.968;2022-09-01T05:42:30;2.33;;;1.42;;
30998;SDS011;20549;50.042;8.968;2022-09-01T05:44:56;1.45;;;1.35;;
30998;SDS011;20549;50.042;8.968;2022-09-01T05:47:23;1.60;;;1.15;;
30998;SDS011;20549;50.042;8.968;2022-09-01T05:49:50;1.80;;;1.42;;
30998;SDS011;20549;50.042;8.968;2022-09-01T05:52:16;1.27;;;1.22;;
30998;SDS011;20549;50.042;8.968;2022-09-01T05:54:43;1.55;;;1.45;;
30998;SDS011;20549;50.042;8.968;2022-09-01T05:57:09;2.25;;;1.40;;
30998;SDS011;20549;50.042;8.968;2022-09-01T05:59:36;1.27;;;1.17;;
30998;SDS011;20549;50.042;8.968;2022-09-01T06:02:02;3.27;;;1.30;;
30998;SDS011;20549;50.042;8.968;2022-09-01T06:04:29;1.30;;;1.20;;
30998;SDS011;20549;50.042;8.968;2022-09-01T06:06:56;2.10;;;1.20;;
30998;SDS011;20549;50.042;8.968;2022-09-01T06:09:22;1.47;;;1.37;;
30998;SDS011;20549;50.042;8.968;2022-09-01T06:11:49;2.00;;;1.35;;
30998;SDS011;20549;50.042;8.968;2022-09-01T06:14:16;1.62;;;1.30;;
30998;SDS011;20549;50.042;8.968;2022-09-01T06:16:42;3.25;;;1.62;;
30998;SDS011;20549;50.042;8.968;2022-09-01T06:19:09;1.92;;;1.52;;
30998;SDS011;20549;50.042;8.968;2022-09-01T06:21:37;1.20;;;1.10;;
30998;SDS011;20549;50.042;8.968;2022-09-01T06:24:02;1.50;;;1.40;;
30998;SDS011;20549;50.042;8.968;2022-09-01T06:26:30;1.98;;;1.47;;
30998;SDS011;20549;50.042;8.968;2022-09-01T06:28:56;1.22;;;1.07;;
30998;SDS011;20549;50.042;8.968;2022-09-01T06:31:22;1.32;;;1.22;;
30998;SDS011;20549;50.042;8.968;2022-09-01T06:33:52;1.12;;;1.12;;
30998;SDS011;20549;50.042;8.968;2022-09-01T06:36:18;1.62;;;1.50;;
30998;SDS011;20549;50.042;8.968;2022-09-01T06:38:44;2.65;;;1.30;;
30998;SDS011;20549;50.042;8.968;2022-09-01T06:41:10;2.25;;;1.62;;
30998;SDS011;20549;50.042;8.968;2022-09-01T06:43:40;2.22;;;2.05;;
30998;SDS011;20549;50.042;8.968;2022-09-01T06:46:07;1.45;;;1.32;;
30998;SDS011;20549;50.042;8.968;2022-09-01T06:48:33;2.40;;;1.27;;
30998;SDS011;20549;50.042;8.968;2022-09-01T06:51:00;1.57;;;1.47;;
30998;SDS011;20549;50.042;8.968;2022-09-01T06:53:26;1.30;;;1.20;;
30998;SDS011;20549;50.042;8.968;2022-09-01T06:55:53;0.93;;;0.93;;
30998;SDS011;20549;50.042;8.968;2022-09-01T06:58:19;1.47;;;1.12;;
30998;SDS011;20549;50.042;8.968;2022-09-01T07:00:46;2.08;;;1.47;;
30998;SDS011;20549;50.042;8.968;2022-09-01T07:03:13;1.32;;;1.22;;
30998;SDS011;20549;50.042;8.968;2022-09-01T07:05:40;1.87;;;1.60;;
30998;SDS011;20549;50.042;8.968;2022-09-01T07:08:07;1.75;;;1.60;;
30998;SDS011;20549;50.042;8.968;2022-09-01T07:10:32;2.12;;;1.35;;
30998;SDS011;20549;50.042;8.968;2022-09-01T07:12:59;1.50;;;1.32;;
30998;SDS011;20549;50.042;8.968;2022-09-01T07:15:26;2.72;;;1.17;;
30998;SDS011;20549;50.042;8.968;2022-09-01T07:17:53;1.42;;;1.32;;
30998;SDS011;20549;50.042;8.968;2022-09-01T07:20:19;3.17;;;1.15;;
30998;SDS011;20549;50.042;8.968;2022-09-01T07:22:48;1.27;;;1.17;;
30998;SDS011;20549;50.042;8.968;2022-09-01T07:25:12;1.12;;;1.07;;
30998;SDS011;20549;50.042;8.968;2022-09-01T07:27:39;2.08;;;1.07;;
30998;SDS011;20549;50.042;8.968;2022-09-01T07:30:05;1.27;;;1.17;;
30998;SDS011;20549;50.042;8.968;2022-09-01T07:32:32;1.40;;;1.30;;
30998;SDS011;20549;50.042;8.968;2022-09-01T07:34:59;1.70;;;1.35;;
30998;SDS011;20549;50.042;8.968;2022-09-01T07:37:25;2.80;;;1.42;;
30998;SDS011;20549;50.042;8.968;2022-09-01T07:39:52;2.98;;;1.55;;
30998;SDS011;20549;50.042;8.968;2022-09-01T07:42:18;3.50;;;1.50;;
30998;SDS011;20549;50.042;8.968;2022-09-01T07:44:45;2.85;;;1.27;;
30998;SDS011;20549;50.042;8.968;2022-09-01T07:47:11;2.50;;;1.30;;
30998;SDS011;20549;50.042;8.968;2022-09-01T07:49:38;1.17;;;1.07;;
30998;SDS011;20549;50.042;8.968;2022-09-01T07:52:05;1.47;;;1.37;;
30998;SDS011;20549;50.042;8.968;2022-09-01T07:54:31;1.70;;;1.40;;
30998;SDS011;20549;50.042;8.968;2022-09-01T07:56:58;1.40;;;0.98;;
30998;SDS011;20549;50.042;8.968;2022-09-01T07:59:24;1.20;;;1.07;;
30998;SDS011;20549;50.042;8.968;2022-09-01T08:01:51;2.02;;;1.72;;
30998;SDS011;20549;50.042;8.968;2022-09-01T08:04:18;1.40;;;1.30;;
30998;SDS011;20549;50.042;8.968;2022-09-01T08:06:44;2.05;;;1.50;;
30998;SDS011;20549;50.042;8.968;2022-09-01T08:09:11;1.37;;;1.00;;
30998;SDS011;20549;50.042;8.968;2022-09-01T08:11:38;1.12;;;1.02;;
30998;SDS011;20549;50.042;8.968;2022-09-01T08:14:04;1.75;;;1.10;;
30998;SDS011;20549;50.042;8.968;2022-09-01T08:16:31;1.60;;;1.25;;
30998;SDS011;20549;50.042;8.968;2022-09-01T08:18:57;1.40;;;1.22;;
30998;SDS011;20549;50.042;8.968;2022-09-01T08:21:24;2.27;;;1.40;;
30998;SDS011;20549;50.042;8.968;2022-09-01T08:23:51;1.37;;;1.27;;
30998;SDS011;20549;50.042;8.968;2022-09-01T08:26:18;1.20;;;1.10;;
30998;SDS011;20549;50.042;8.968;2022-09-01T08:28:43;1.15;;;1.05;;
30998;SDS011;20549;50.042;8.968;2022-09-01T08:31:11;1.45;;;1.35;;
30998;SDS011;20549;50.042;8.968;2022-09-01T08:33:37;1.37;;;1.27;;
30998;SDS011;20549;50.042;8.968;2022-09-01T08:36:05;1.40;;;1.30;;
30998;SDS011;20549;50.042;8.968;2022-09-01T08:38:30;3.05;;;1.60;;
30998;SDS011;20549;50.042;8.968;2022-09-01T08:40:57;1.32;;;1.22;;
30998;SDS011;20549;50.042;8.968;2022-09-01T08:43:31;3.42;;;1.20;;
30998;SDS011;20549;50.042;8.968;2022-09-01T08:45:56;1.20;;;1.20;;
30998;SDS011;20549;50.042;8.968;2022-09-01T08:48:38;0.95;;;0.95;;
30998;SDS011;20549;50.042;8.968;2022-09-01T08:53:46;2.70;;;1.60;;
30998;SDS011;20549;50.042;8.968;2022-09-01T08:56:14;2.98;;;1.00;;
30998;SDS011;20549;50.042;8.968;2022-09-01T08:58:41;1.25;;;1.15;;
30998;SDS011;20549;50.042;8.968;2022-09-01T09:01:17;2.30;;;1.25;;
30998;SDS011;20549;50.042;8.968;2022-09-01T09:04:01;1.95;;;1.75;;
30998;SDS011;20549;50.042;8.968;2022-09-01T09:06:49;2.72;;;1.05;;
30998;SDS011;20549;50.042;8.968;2022-09-01T09:09:13;1.50;;;1.30;;
30998;SDS011;20549;50.042;8.968;2022-09-01T09:17:13;1.00;;;1.00;;
30998;SDS011;20549;50.042;8.968;2022-09-01T09:19:40;1.60;;;1.30;;
30998;SDS011;20549;50.042;8.968;2022-09-01T09:22:10;3.33;;;1.52;;
30998;SDS011;20549;50.042;8.968;2022-09-01T09:27:24;1.07;;;1.07;;
30998;SDS011;20549;50.042;8.968;2022-09-01T09:29:56;1.05;;;0.95;;
30998;SDS011;20549;50.042;8.968;2022-09-01T09:32:22;1.40;;;1.22;;
30998;SDS011;20549;50.042;8.968;2022-09-01T09:34:48;1.07;;;1.07;;
30998;SDS011;20549;50.042;8.968;2022-09-01T09:37:16;2.37;;;1.12;;
30998;SDS011;20549;50.042;8.968;2022-09-01T09:39:42;1.10;;;1.10;;
30998;SDS011;20549;50.042;8.968;2022-09-01T09:42:11;3.02;;;1.27;;
30998;SDS011;20549;50.042;8.968;2022-09-01T09:44:39;0.95;;;0.95;;
30998;SDS011;20549;50.042;8.968;2022-09-01T09:47:04;2.05;;;0.90;;
30998;SDS011;20549;50.042;8.968;2022-09-01T09:49:32;1.42;;;1.00;;
30998;SDS011;20549;50.042;8.968;2022-09-01T09:54:28;2.65;;;1.10;;
30998;SDS011;20549;50.042;8.968;2022-09-01T09:59:48;0.95;;;0.95;;
30998;SDS011;20549;50.042;8.968;2022-09-01T10:04:46;1.02;;;0.85;;
30998;SDS011;20549;50.042;8.968;2022-09-01T10:07:21;1.87;;;1.10;;
30998;SDS011;20549;50.042;8.968;2022-09-01T10:09:51;1.17;;;0.88;;
30998;SDS011;20549;50.042;8.968;2022-09-01T10:12:18;1.47;;;1.37;;
30998;SDS011;20549;50.042;8.968;2022-09-01T10:14:47;1.57;;;1.02;;
30998;SDS011;20549;50.042;8.968;2022-09-01T10:17:12;0.90;;;0.90;;
30998;SDS011;20549;50.042;8.968;2022-09-01T10:19:37;1.12;;;1.00;;
30998;SDS011;20549;50.042;8.968;2022-09-01T10:22:04;1.80;;;1.10;;
30998;SDS011;20549;50.042;8.968;2022-09-01T10:24:32;2.02;;;1.20;;
30998;SDS011;20549;50.042;8.968;2022-09-01T10:27:12;1.32;;;1.02;;
30998;SDS011;20549;50.042;8.968;2022-09-01T10:29:38;1.20;;;1.10;;
30998;SDS011;20549;50.042;8.968;2022-09-01T10:32:05;1.30;;;1.25;;
30998;SDS011;20549;50.042;8.968;2022-09-01T10:34:31;1.02;;;1.02;;
30998;SDS011;20549;50.042;8.968;2022-09-01T10:36:55;0.93;;;0.93;;
30998;SDS011;20549;50.042;8.968;2022-09-01T10:39:22;1.00;;;1.00;;
30998;SDS011;20549;50.042;8.968;2022-09-01T10:41:50;2.80;;;0.95;;
30998;SDS011;20549;50.042;8.968;2022-09-01T10:44:25;1.10;;;1.00;;
30998;SDS011;20549;50.042;8.968;2022-09-01T10:46:54;1.57;;;1.42;;
30998;SDS011;20549;50.042;8.968;2022-09-01T10:49:23;1.15;;;1.05;;
30998;SDS011;20549;50.042;8.968;2022-09-01T10:51:47;1.32;;;0.90;;
30998;SDS011;20549;50.042;8.968;2022-09-01T10:57:26;1.30;;;1.20;;
30998;SDS011;20549;50.042;8.968;2022-09-01T10:59:49;1.20;;;1.10;;
30998;SDS011;20549;50.042;8.968;2022-09-01T11:02:17;1.00;;;1.00;;
30998;SDS011;20549;50.042;8.968;2022-09-01T11:20:27;1.22;;;1.10;;
30998;SDS011;20549;50.042;8.968;2022-09-01T11:23:05;3.12;;;1.10;;
30998;SDS011;20549;50.042;8.968;2022-09-01T11:25:40;3.40;;;1.27;;
30998;SDS011;20549;50.042;8.968;2022-09-01T11:28:07;1.75;;;0.85;;
30998;SDS011;20549;50.042;8.968;2022-09-01T11:38:45;2.20;;;1.20;;
30998;SDS011;20549;50.042;8.968;2022-09-01T11:41:22;1.15;;;1.05;;
30998;SDS011;20549;50.042;8.968;2022-09-01T11:43:55;1.27;;;1.10;;
30998;SDS011;20549;50.042;8.968;2022-09-01T11:46:28;3.00;;;1.20;;
30998;SDS011;20549;50.042;8.968;2022-09-01T11:48:53;1.02;;;1.00;;
30998;SDS011;20549;50.042;8.968;2022-09-01T11:51:19;1.27;;;1.10;;
30998;SDS011;20549;50.042;8.968;2022-09-01T11:53:46;0.98;;;0.93;;
30998;SDS011;20549;50.042;8.968;2022-09-01T11:56:14;5.17;;;1.20;;
30998;SDS011;20549;50.042;8.968;2022-09-01T11:58:42;1.00;;;1.00;;
30998;SDS011;20549;50.042;8.968;2022-09-01T12:01:13;1.20;;;1.10;;
30998;SDS011;20549;50.042;8.968;2022-09-01T12:03:44;3.70;;;1.00;;
30998;SDS011;20549;50.042;8.968;2022-09-01T12:06:11;0.95;;;0.90;;
30998;SDS011;20549;50.042;8.968;2022-09-01T12:08:41;1.22;;;1.12;;
30998;SDS011;20549;50.042;8.968;2022-09-01T12:11:07;1.52;;;1.25;;
30998;SDS011;20549;50.042;8.968;2022-09-01T12:13:33;1.82;;;1.10;;
30998;SDS011;20549;50.042;8.968;2022-09-01T12:16:00;1.07;;;1.07;;
30998;SDS011;20549;50.042;8.968;2022-09-01T12:18:27;1.20;;;1.10;;
30998;SDS011;20549;50.042;8.968;2022-09-01T12:20:54;0.95;;;0.88;;
30998;SDS011;20549;50.042;8.968;2022-09-01T12:23:30;3.00;;;1.25;;
30998;SDS011;20549;50.042;8.968;2022-09-01T12:25:56;1.50;;;1.07;;
30998;SDS011;20549;50.042;8.968;2022-09-01T12:28:22;1.12;;;1.10;;
30998;SDS011;20549;50.042;8.968;2022-09-01T12:30:50;1.20;;;1.10;;
30998;SDS011;20549;50.042;8.968;2022-09-01T12:33:17;1.20;;;1.10;;
30998;SDS011;20549;50.042;8.968;2022-09-01T12:35:44;1.45;;;1.17;;
30998;SDS011;20549;50.042;8.968;2022-09-01T12:40:53;1.00;;;1.00;;
30998;SDS011;20549;50.042;8.968;2022-09-01T12:46:00;2.00;;;1.15;;
30998;SDS011;20549;50.042;8.968;2022-09-01T12:48:32;1.00;;;1.00;;
30998;SDS011;20549;50.042;8.968;2022-09-01T12:51:41;1.40;;;1.07;;
30998;SDS011;20549;50.042;8.968;2022-09-01T12:53:50;1.22;;;1.10;;
30998;SDS011;20549;50.042;8.968;2022-09-01T12:56:20;1.17;;;0.95;;
30998;SDS011;20549;50.042;8.968;2022-09-01T12:58:46;1.82;;;1.10;;
30998;SDS011;20549;50.042;8.968;2022-09-01T13:01:22;1.00;;;1.00;;
30998;SDS011;20549;50.042;8.968;2022-09-01T13:03:38;1.60;;;1.12;;
30998;SDS011;20549;50.042;8.968;2022-09-01T13:06:05;1.80;;;1.07;;
30998;SDS011;20549;50.042;8.968;2022-09-01T13:08:32;1.75;;;1.35;;
30998;SDS011;20549;50.042;8.968;2022-09-01T13:11:12;0.95;;;0.95;;
30998;SDS011;20549;50.042;8.968;2022-09-01T13:13:34;1.07;;;1.07;;
30998;SDS011;20549;50.042;8.968;2022-09-01T13:16:00;1.02;;;1.00;;
30998;SDS011;20549;50.042;8.968;2022-09-01T13:18:27;1.20;;;1.10;;
30998;SDS011;20549;50.042;8.968;2022-09-01T13:20:54;1.35;;;1.30;;
30998;SDS011;20549;50.042;8.968;2022-09-01T13:23:20;1.20;;;1.10;;
30998;SDS011;20549;50.042;8.968;2022-09-01T13:25:47;1.67;;;1.10;;
30998;SDS011;20549;50.042;8.968;2022-09-01T13:28:14;1.60;;;1.17;;
30998;SDS011;20549;50.042;8.968;2022-09-01T13:30:40;3.12;;;0.93;;
30998;SDS011;20549;50.042;8.968;2022-09-01T13:33:06;1.12;;;1.12;;
30998;SDS011;20549;50.042;8.968;2022-09-01T13:35:33;0.98;;;0.98;;
30998;SDS011;20549;50.042;8.968;2022-09-01T13:38:00;1.10;;;1.07;;
30998;SDS011;20549;50.042;8.968;2022-09-01T13:40:26;0.90;;;0.90;;
30998;SDS011;20549;50.042;8.968;2022-09-01T13:42:53;3.65;;;1.12;;
30998;SDS011;20549;50.042;8.968;2022-09-01T13:45:20;1.27;;;1.17;;
30998;SDS011;20549;50.042;8.968;2022-09-01T13:47:47;1.85;;;1.30;;
30998;SDS011;20549;50.042;8.968;2022-09-01T13:50:13;1.30;;;1.20;;
30998;SDS011;20549;50.042;8.968;2022-09-01T13:52:40;1.95;;;1.27;;
30998;SDS011;20549;50.042;8.968;2022-09-01T13:55:06;1.25;;;1.15;;
30998;SDS011;20549;50.042;8.968;2022-09-01T13:57:32;2.17;;;1.22;;
30998;SDS011;20549;50.042;8.968;2022-09-01T13:59:59;1.30;;;1.20;;
30998;SDS011;20549;50.042;8.968;2022-09-01T14:02:25;1.32;;;1.20;;
30998;SDS011;20549;50.042;8.968;2022-09-01T14:04:52;1.12;;;1.12;;
30998;SDS011;20549;50.042;8.968;2022-09-01T14:07:19;2.17;;;1.10;;
30998;SDS011;20549;50.042;8.968;2022-09-01T14:09:45;1.05;;;1.05;;
30998;SDS011;20549;50.042;8.968;2022-09-01T14:12:12;1.22;;;0.98;;
30998;SDS011;20549;50.042;8.968;2022-09-01T14:14:38;1.40;;;1.30;;
30998;SDS011;20549;50.042;8.968;2022-09-01T14:17:05;1.52;;;1.20;;
30998;SDS011;20549;50.042;8.968;2022-09-01T14:19:32;1.00;;;1.00;;
30998;SDS011;20549;50.042;8.968;2022-09-01T14:21:58;3.80;;;1.32;;
30998;SDS011;20549;50.042;8.968;2022-09-01T14:24:25;1.30;;;1.20;;
30998;SDS011;20549;50.042;8.968;2022-09-01T14:26:51;1.15;;;1.05;;
30998;SDS011;20549;50.042;8.968;2022-09-01T14:29:18;1.22;;;1.12;;
30998;SDS011;20549;50.042;8.968;2022-09-01T14:31:44;0.98;;;0.98;;
30998;SDS011;20549;50.042;8.968;2022-09-01T14:34:11;2.55;;;1.15;;
30998;SDS011;20549;50.042;8.968;2022-09-01T14:36:38;1.37;;;1.20;;
30998;SDS011;20549;50.042;8.968;2022-09-01T14:39:04;2.20;;;1.20;;
30998;SDS011;20549;50.042;8.968;2022-09-01T14:41:31;1.47;;;1.37;;
30998;SDS011;20549;50.042;8.968;2022-09-01T14:43:57;1.10;;;1.10;;
30998;SDS011;20549;50.042;8.968;2022-09-01T14:46:24;1.12;;;1.02;;
30998;SDS011;20549;50.042;8.968;2022-09-01T14:48:51;1.22;;;1.12;;
30998;SDS011;20549;50.042;8.968;2022-09-01T14:51:18;1.67;;;1.55;;
30998;SDS011;20549;50.042;8.968;2022-09-01T14:53:47;0.98;;;0.98;;
30998;SDS011;20549;50.042;8.968;2022-09-01T14:56:13;1.25;;;1.00;;
30998;SDS011;20549;50.042;8.968;2022-09-01T14:58:40;1.20;;;1.10;;
30998;SDS011;20549;50.042;8.968;2022-09-01T15:01:06;0.98;;;0.98;;
30998;SDS011;20549;50.042;8.968;2022-09-01T15:03:33;1.10;;;1.10;;
30998;SDS011;20549;50.042;8.968;2022-09-01T15:05:59;1.67;;;1.30;;
30998;SDS011;20549;50.042;8.968;2022-09-01T15:08:26;1.20;;;1.05;;
30998;SDS011;20549;50.042;8.968;2022-09-01T15:10:53;5.12;;;1.30;;
30998;SDS011;20549;50.042;8.968;2022-09-01T15:13:19;1.25;;;1.15;;
30998;SDS011;20549;50.042;8.968;2022-09-01T15:15:46;1.12;;;1.10;;
30998;SDS011;20549;50.042;8.968;2022-09-01T15:18:12;1.15;;;1.10;;
30998;SDS011;20549;50.042;8.968;2022-09-01T15:20:40;1.30;;;1.20;;
30998;SDS011;20549;50.042;8.968;2022-09-01T15:23:13;1.00;;;1.00;;
30998;SDS011;20549;50.042;8.968;2022-09-01T15:25:38;3.75;;;1.20;;
30998;SDS011;20549;50.042;8.968;2022-09-01T15:28:05;1.02;;;0.98;;
30998;SDS011;20549;50.042;8.968;2022-09-01T15:30:31;1.20;;;1.10;;
30998;SDS011;20549;50.042;8.968;2022-09-01T15:32:58;0.95;;;0.95;;
30998;SDS011;20549;50.042;8.968;2022-09-01T15:35:25;2.12;;;1.22;;
30998;SDS011;20549;50.042;8.968;2022-09-01T15:37:51;0.82;;;0.82;;
30998;SDS011;20549;50.042;8.968;2022-09-01T15:40:18;1.62;;;1.20;;